If you wish to contribute or participate in the discussions about articles you are invited to join SKYbrary as a registered user

 Actions

Burgos Airport

From SKYbrary Wiki

LEBG
Airport
ICAO: LEBG – IATA: RGS
Summary
Name Burgos Airport
Region Europe
Territory Spain ES.gif
Location , Castilla y Leon
Serving Burgos
Elevation 897.636 m
2,945 ft
2,945 ft897.636 m
Type medium airport
Coordinates 42° 21' 27.46" N, 3° 37' 14.75" W
Runways
Designator Length Width Surface ROPS
6/24 1339 m4,393.045 ft
30 m98.425 ft
ASP /


METAR
Observation LEBG 210030Z AUTO 12005KT CAVOK 14/12 Q1015
Station Burgos / Villafria
Date/Time 21 September 2019 00:30:00
Wind direction 120°
Wind speed 05 kts
Lowest cloud amount clouds and visibility OK
Temperature 14°C
Dew point 12°C
Humidity 87%
QNH 1015 hPa
Weather condition n/a